Terminal Aerodrome Forecast
Issued by NWS Louisville, KY

Home | Current Version | Previous Version | Text Only | Print | Product List | Glossary On
Versions: 1 2 3 4 5 6 7 8 9 10 11 12 13 14 15 16 17 18
000
FTUS43 KLMK 210500
TAFLEX
TAF
KLEX 210536Z 2106/2206 00000KT 1/2SM FG SCT002
      TEMPO 2106/2109 1 1/2SM BR SCT005
     FM211230 00000KT 4SM BR FEW006
     FM211400 07005KT P6SM SCT050
     FM220100 VRB03KT P6SM SKC=

USA.gov is the U.S. government's official web portal to all federal, state and local government web resources and services.